createdAt,value
2017-05-27T00:00:18.389Z,57.80
2017-05-27T00:02:45.358Z,57.90
2017-05-27T00:05:12.310Z,58.00
2017-05-27T00:07:39.293Z,58.30
2017-05-27T00:10:06.239Z,58.40
2017-05-27T00:12:33.229Z,58.40
2017-05-27T00:15:00.173Z,58.10
2017-05-27T00:17:27.102Z,57.70
2017-05-27T00:19:54.074Z,57.80
2017-05-27T00:22:21.025Z,58.20
2017-05-27T00:24:48.056Z,58.40
2017-05-27T00:27:14.974Z,58.90
2017-05-27T00:29:41.939Z,58.50
2017-05-27T00:32:08.885Z,58.20
2017-05-27T00:34:35.854Z,58.10
2017-05-27T00:37:02.786Z,58.10
2017-05-27T00:39:29.754Z,58.10
2017-05-27T00:41:56.701Z,58.00
2017-05-27T00:44:23.674Z,58.00
2017-05-27T00:46:50.625Z,58.10
2017-05-27T00:49:17.584Z,58.20
2017-05-27T00:51:44.520Z,58.30
2017-05-27T00:54:11.485Z,58.30
2017-05-27T00:56:38.448Z,58.50
2017-05-27T00:59:05.412Z,58.20
2017-05-27T01:01:32.394Z,58.10
2017-05-27T01:03:59.340Z,58.10
2017-05-27T01:06:26.314Z,58.20
2017-05-27T01:08:53.287Z,58.10
2017-05-27T01:11:20.258Z,58.30
2017-05-27T01:13:47.219Z,58.40
2017-05-27T01:16:14.198Z,58.50
2017-05-27T01:18:41.146Z,58.40
2017-05-27T01:21:08.147Z,58.30
2017-05-27T01:23:42.154Z,58.50
2017-05-27T01:26:09.121Z,58.50
2017-05-27T01:28:36.060Z,58.30
2017-05-27T01:31:03.014Z,58.40
2017-05-27T01:33:30.010Z,58.40
2017-05-27T01:35:56.982Z,58.30
2017-05-27T01:38:23.965Z,58.40
2017-05-27T01:40:50.992Z,58.40
2017-05-27T01:43:17.967Z,58.60
2017-05-27T01:45:44.941Z,58.60
2017-05-27T01:48:11.921Z,58.80
2017-05-27T01:50:38.932Z,58.70
2017-05-27T01:53:05.898Z,58.70
2017-05-27T01:55:32.847Z,58.60
2017-05-27T01:57:59.812Z,58.70
2017-05-27T02:00:26.762Z,58.40
2017-05-27T02:02:53.734Z,58.30
2017-05-27T02:05:20.678Z,58.40
2017-05-27T02:07:47.660Z,58.50
2017-05-27T02:10:14.645Z,57.90
2017-05-27T02:12:41.588Z,58.20
2017-05-27T02:15:08.571Z,58.10
2017-05-27T02:17:35.524Z,58.40
2017-05-27T02:20:02.524Z,58.60
2017-05-27T02:22:29.469Z,58.80
2017-05-27T02:24:56.441Z,58.50
2017-05-27T02:27:23.394Z,58.20
2017-05-27T02:29:50.373Z,58.20
2017-05-27T02:32:17.324Z,58.30
2017-05-27T02:34:44.304Z,58.40
2017-05-27T02:37:11.253Z,58.50
2017-05-27T02:39:38.249Z,58.50
2017-05-27T02:42:05.199Z,58.70
2017-05-27T02:44:32.246Z,58.60
2017-05-27T02:46:59.206Z,59.20
2017-05-27T02:49:26.159Z,59.30
2017-05-27T02:51:53.138Z,59.40
2017-05-27T02:54:20.107Z,59.40
2017-05-27T02:56:47.082Z,59.40
2017-05-27T02:59:14.035Z,59.30
2017-05-27T03:01:41.006Z,59.40
2017-05-27T03:04:07.962Z,59.30
2017-05-27T03:06:34.938Z,59.50
2017-05-27T03:09:01.922Z,59.50
2017-05-27T03:11:28.860Z,59.60
2017-05-27T03:13:55.890Z,59.40
2017-05-27T03:16:22.848Z,59.20
2017-05-27T03:18:49.829Z,59.00
2017-05-27T03:21:16.777Z,59.20
2017-05-27T03:23:43.788Z,59.10
2017-05-27T03:26:10.730Z,59.10
2017-05-27T03:28:37.692Z,59.00
2017-05-27T03:31:04.638Z,59.10
2017-05-27T03:33:31.630Z,59.10
2017-05-27T03:35:58.569Z,59.10
2017-05-27T03:38:25.512Z,59.10
2017-05-27T03:40:52.486Z,59.20
2017-05-27T03:43:19.424Z,59.20
2017-05-27T03:45:46.403Z,59.80
2017-05-27T03:48:13.353Z,59.20
2017-05-27T03:50:40.317Z,59.30
2017-05-27T03:53:07.254Z,59.20
2017-05-27T03:55:34.226Z,59.30
2017-05-27T03:58:01.168Z,59.40
2017-05-27T04:00:28.153Z,59.50
2017-05-27T04:02:55.090Z,59.60
2017-05-27T04:05:22.050Z,59.70
2017-05-27T04:07:49.063Z,59.60
2017-05-27T04:10:16.021Z,59.50
2017-05-27T04:12:42.988Z,59.70
2017-05-27T04:15:10.036Z,59.60
2017-05-27T04:17:37.049Z,59.90
2017-05-27T04:20:04.001Z,59.90
2017-05-27T04:22:30.985Z,60.00
2017-05-27T04:24:57.950Z,59.90
2017-05-27T04:27:25.167Z,60.10
2017-05-27T04:29:52.523Z,60.20
2017-05-27T04:32:19.501Z,60.30
2017-05-27T04:34:46.516Z,60.40
2017-05-27T04:37:13.623Z,60.50
2017-05-27T04:39:40.641Z,60.90
2017-05-27T04:42:07.657Z,61.00
2017-05-27T04:44:34.633Z,61.00
2017-05-27T04:47:01.594Z,61.10
2017-05-27T04:49:28.571Z,61.30
2017-05-27T04:51:55.526Z,61.40
2017-05-27T04:54:22.477Z,61.30
2017-05-27T04:56:49.446Z,61.10
2017-05-27T04:59:16.409Z,60.70
2017-05-27T05:01:43.385Z,60.60
2017-05-27T05:04:10.381Z,60.40
2017-05-27T05:06:37.423Z,60.30
2017-05-27T05:09:04.386Z,60.20
2017-05-27T05:11:31.387Z,60.00
2017-05-27T05:13:58.343Z,60.00
2017-05-27T05:16:25.397Z,60.10
2017-05-27T05:18:52.425Z,60.30
2017-05-27T05:21:19.382Z,60.00
2017-05-27T05:23:46.757Z,60.00
2017-05-27T05:26:13.742Z,60.10
2017-05-27T05:28:40.713Z,59.90
2017-05-27T05:31:07.671Z,60.10
2017-05-27T05:33:34.637Z,60.10
2017-05-27T05:36:01.590Z,60.00
2017-05-27T05:38:28.555Z,59.70
2017-05-27T05:40:56.153Z,59.50
2017-05-27T05:43:23.122Z,59.50
2017-05-27T05:45:50.070Z,59.50
2017-05-27T05:48:17.036Z,59.50
2017-05-27T05:50:44.029Z,59.50
2017-05-27T05:53:10.997Z,59.60
2017-05-27T05:55:38.085Z,59.50
2017-05-27T05:58:05.030Z,59.50
2017-05-27T06:00:32.011Z,59.20
2017-05-27T06:02:58.966Z,58.70
2017-05-27T06:05:25.941Z,59.10
2017-05-27T06:07:52.915Z,59.00
2017-05-27T06:10:19.945Z,59.10
2017-05-27T06:12:46.915Z,59.30
2017-05-27T06:15:13.860Z,59.20
2017-05-27T06:17:40.877Z,59.30
2017-05-27T06:20:08.085Z,59.20
2017-05-27T06:22:35.044Z,59.10
2017-05-27T06:25:02.001Z,58.80
2017-05-27T06:27:28.975Z,57.70
2017-05-27T06:29:55.929Z,57.70
2017-05-27T06:32:22.912Z,57.90
2017-05-27T06:34:50.023Z,57.20
2017-05-27T06:37:17.057Z,57.30
2017-05-27T06:39:44.034Z,57.60
2017-05-27T06:42:10.995Z,57.70
2017-05-27T06:44:37.978Z,56.90
2017-05-27T06:47:04.933Z,56.40
2017-05-27T06:49:31.910Z,57.40
2017-05-27T06:51:59.002Z,57.20
2017-05-27T06:54:25.994Z,56.40
2017-05-27T06:56:52.958Z,56.00
2017-05-27T06:59:19.947Z,57.40
2017-05-27T07:01:46.905Z,55.80
2017-05-27T07:04:13.877Z,56.10
2017-05-27T07:06:40.945Z,56.30
2017-05-27T07:09:07.939Z,55.40
2017-05-27T07:11:34.884Z,55.50
2017-05-27T07:14:01.834Z,55.90
2017-05-27T07:16:28.809Z,56.60
2017-05-27T07:18:55.750Z,55.60
2017-05-27T07:21:22.726Z,56.30
2017-05-27T07:23:49.680Z,56.10
2017-05-27T07:26:16.654Z,54.60
2017-05-27T07:28:43.602Z,54.50
2017-05-27T07:31:10.575Z,54.30
2017-05-27T07:33:37.519Z,54.30
2017-05-27T07:36:04.486Z,54.00
2017-05-27T07:38:31.473Z,54.40
2017-05-27T07:40:58.721Z,56.50
2017-05-27T07:43:25.673Z,55.00
2017-05-27T07:45:52.648Z,53.80
2017-05-27T07:48:19.629Z,54.20
2017-05-27T07:50:46.578Z,53.30
2017-05-27T07:53:13.551Z,52.90
2017-05-27T07:55:40.506Z,53.60
2017-05-27T07:58:07.475Z,52.90
2017-05-27T08:00:34.415Z,51.70
2017-05-27T08:03:01.481Z,52.10
2017-05-27T08:05:28.466Z,51.10
2017-05-27T08:07:55.501Z,49.70
2017-05-27T08:10:22.471Z,50.00
2017-05-27T08:12:49.484Z,50.10
2017-05-27T08:15:16.455Z,50.90
2017-05-27T08:17:43.411Z,50.20
2017-05-27T08:20:10.409Z,50.00
2017-05-27T08:22:37.360Z,48.20
2017-05-27T08:25:04.338Z,48.90
2017-05-27T08:27:31.337Z,47.00
2017-05-27T08:29:58.326Z,47.30
2017-05-27T08:32:31.389Z,45.80
2017-05-27T08:34:58.451Z,47.00
2017-05-27T08:37:26.418Z,46.90
2017-05-27T08:39:53.396Z,46.40
2017-05-27T08:42:20.353Z,45.80
2017-05-27T08:44:47.349Z,46.80
2017-05-27T08:47:14.307Z,46.70
2017-05-27T08:49:41.257Z,45.60
2017-05-27T08:52:08.225Z,46.60
2017-05-27T08:54:35.174Z,46.90
2017-05-27T08:57:02.150Z,46.60
2017-05-27T08:59:29.156Z,46.00
2017-05-27T09:01:56.106Z,44.90
2017-05-27T09:04:23.064Z,44.00
2017-05-27T09:06:50.036Z,45.90
2017-05-27T09:09:24.092Z,45.60
2017-05-27T09:11:51.074Z,44.90
2017-05-27T09:14:18.037Z,45.60
2017-05-27T09:16:44.984Z,46.20
2017-05-27T09:19:11.966Z,45.00
2017-05-27T09:21:38.923Z,44.70
2017-05-27T09:24:05.899Z,43.30
2017-05-27T09:26:32.846Z,44.00
2017-05-27T09:28:59.840Z,44.40
2017-05-27T09:31:26.796Z,43.30
2017-05-27T09:34:08.690Z,43.10
2017-05-27T09:36:35.645Z,43.50
2017-05-27T09:39:02.675Z,43.30
2017-05-27T09:41:29.630Z,43.70
2017-05-27T09:43:56.598Z,42.40
2017-05-27T09:46:23.553Z,44.50
2017-05-27T09:48:50.500Z,42.90
2017-05-27T09:51:17.469Z,42.40
2017-05-27T09:53:44.413Z,43.20
2017-05-27T09:56:11.506Z,44.40
2017-05-27T09:58:38.465Z,44.10
2017-05-27T10:01:05.424Z,42.20
2017-05-27T10:03:32.374Z,41.60
2017-05-27T10:05:59.355Z,40.90
2017-05-27T10:08:26.318Z,41.50
2017-05-27T10:10:53.326Z,40.90
2017-05-27T10:13:20.270Z,43.00
2017-05-27T10:15:47.230Z,40.90
2017-05-27T10:18:14.194Z,40.40
2017-05-27T10:20:41.143Z,41.00
2017-05-27T10:23:08.102Z,42.00
2017-05-27T10:25:35.069Z,41.20
2017-05-27T10:28:02.050Z,39.90
2017-05-27T10:30:28.988Z,40.40
2017-05-27T10:32:55.984Z,39.50
2017-05-27T10:35:22.940Z,38.90
2017-05-27T10:37:49.906Z,38.50
2017-05-27T10:40:16.867Z,38.10
2017-05-27T10:42:43.872Z,39.60
2017-05-27T10:45:10.984Z,39.40
2017-05-27T10:47:38.044Z,40.10
2017-05-27T10:50:05.015Z,41.50
2017-05-27T10:52:31.953Z,38.30
2017-05-27T10:54:58.925Z,38.80
2017-05-27T10:59:59.777Z,37.80
2017-05-27T11:02:26.720Z,36.00
2017-05-27T11:04:53.681Z,36.90
2017-05-27T11:07:20.662Z,37.80
2017-05-27T11:09:47.642Z,37.30
2017-05-27T11:12:14.685Z,35.90
2017-05-27T11:14:41.693Z,36.70
2017-05-27T11:17:08.650Z,36.50
2017-05-27T11:19:37.965Z,36.60
2017-05-27T11:22:04.944Z,34.80
2017-05-27T11:24:31.902Z,35.60
2017-05-27T11:26:58.882Z,33.90
2017-05-27T11:29:25.834Z,33.70
2017-05-27T11:31:52.801Z,35.30
2017-05-27T11:34:19.758Z,34.30
2017-05-27T11:36:46.738Z,34.20
2017-05-27T11:39:13.688Z,37.60
2017-05-27T11:41:40.656Z,36.90
2017-05-27T11:44:07.613Z,36.80
2017-05-27T11:46:34.621Z,37.20
2017-05-27T11:49:01.681Z,36.80
2017-05-27T11:51:28.624Z,34.50
2017-05-27T11:53:55.599Z,34.80
2017-05-27T11:56:22.557Z,35.60
2017-05-27T11:58:49.524Z,36.20
2017-05-27T12:01:16.477Z,36.40
2017-05-27T12:03:43.474Z,34.90
2017-05-27T12:06:10.434Z,32.60
2017-05-27T12:08:37.460Z,33.60
2017-05-27T12:11:04.405Z,32.50
2017-05-27T12:13:31.374Z,33.40
2017-05-27T12:15:58.332Z,34.40
2017-05-27T12:18:25.286Z,32.90
2017-05-27T12:20:52.265Z,33.60
2017-05-27T12:23:19.223Z,32.50
2017-05-27T12:25:46.474Z,30.70
2017-05-27T12:28:13.431Z,32.70
2017-05-27T12:30:40.413Z,32.70
2017-05-27T12:33:07.365Z,32.30
2017-05-27T12:35:34.343Z,32.20
2017-05-27T12:38:01.302Z,32.10
2017-05-27T12:40:28.302Z,32.70
2017-05-27T12:42:55.257Z,33.70
2017-05-27T12:45:22.214Z,32.10
2017-05-27T12:47:49.209Z,32.50
2017-05-27T12:50:16.173Z,33.10
2017-05-27T12:52:43.148Z,32.20
2017-05-27T12:55:10.104Z,33.70
2017-05-27T12:57:37.095Z,33.00
2017-05-27T13:00:04.059Z,32.70
2017-05-27T13:02:31.068Z,34.40
2017-05-27T13:04:58.046Z,34.80
2017-05-27T13:07:25.041Z,33.60
2017-05-27T13:09:52.012Z,33.60
2017-05-27T13:12:19.047Z,33.30
2017-05-27T13:14:46.005Z,32.30
2017-05-27T13:17:12.953Z,32.40
2017-05-27T13:19:39.924Z,32.40
2017-05-27T13:22:06.872Z,33.30
2017-05-27T13:24:33.842Z,33.00
2017-05-27T13:27:00.786Z,33.70
2017-05-27T13:29:27.763Z,33.70
2017-05-27T13:31:54.711Z,34.10
2017-05-27T13:34:21.688Z,31.90
2017-05-27T13:36:48.636Z,34.10
2017-05-27T13:39:15.605Z,34.70
2017-05-27T13:41:42.558Z,33.80
2017-05-27T13:44:09.528Z,33.40
2017-05-27T13:46:36.480Z,32.50
2017-05-27T13:49:03.478Z,32.80
2017-05-27T13:51:30.435Z,33.60
2017-05-27T13:53:57.854Z,34.00
2017-05-27T13:56:24.816Z,32.90
2017-05-27T13:58:51.767Z,33.00
2017-05-27T14:01:18.741Z,33.40
2017-05-27T14:03:45.692Z,33.30
2017-05-27T14:06:13.104Z,33.50
2017-05-27T14:08:40.355Z,33.70
2017-05-27T14:11:07.437Z,32.70
2017-05-27T14:13:34.381Z,33.60
2017-05-27T14:16:01.342Z,32.60
2017-05-27T14:18:28.294Z,32.60
2017-05-27T14:20:55.271Z,31.80
2017-05-27T14:23:22.222Z,32.00
2017-05-27T14:25:49.253Z,32.40
2017-05-27T14:28:16.227Z,34.00
2017-05-27T14:30:43.185Z,34.00
2017-05-27T14:35:43.835Z,33.10
2017-05-27T14:38:10.800Z,32.60
2017-05-27T14:40:37.759Z,31.70
2017-05-27T14:43:04.734Z,32.10
2017-05-27T14:45:31.686Z,31.70
2017-05-27T14:47:58.729Z,31.20
2017-05-27T14:50:25.698Z,31.40
2017-05-27T14:52:52.661Z,30.50
2017-05-27T14:55:19.633Z,31.80
2017-05-27T14:57:46.589Z,32.00
2017-05-27T15:00:13.560Z,31.90
2017-05-27T15:02:40.510Z,32.50
2017-05-27T15:05:07.476Z,32.00
2017-05-27T15:07:34.442Z,32.00
2017-05-27T15:10:01.415Z,31.80
2017-05-27T15:12:28.362Z,32.30
2017-05-27T15:14:55.333Z,33.50
2017-05-27T15:17:22.296Z,33.00
2017-05-27T15:19:49.293Z,32.70
2017-05-27T15:22:16.244Z,32.90
2017-05-27T15:24:43.193Z,32.90
2017-05-27T15:27:10.364Z,33.10
2017-05-27T15:29:37.320Z,33.00
2017-05-27T15:32:04.299Z,32.80
2017-05-27T15:34:31.318Z,32.80
2017-05-27T15:36:58.490Z,32.60
2017-05-27T15:39:25.435Z,33.70
2017-05-27T15:41:52.408Z,33.70
2017-05-27T15:44:19.349Z,32.90
2017-05-27T15:46:46.313Z,33.80
2017-05-27T15:49:13.257Z,33.40
2017-05-27T15:51:40.204Z,33.30
2017-05-27T15:54:07.169Z,33.30
2017-05-27T15:59:07.754Z,33.20
2017-05-27T16:01:34.694Z,33.60
2017-05-27T16:04:01.666Z,35.00
2017-05-27T16:06:28.618Z,34.80
2017-05-27T16:08:55.607Z,34.70
2017-05-27T16:11:22.556Z,34.40
2017-05-27T16:13:49.576Z,33.80
2017-05-27T16:16:16.528Z,33.70
2017-05-27T16:18:43.481Z,34.10
2017-05-27T16:21:10.445Z,34.10
2017-05-27T16:23:37.397Z,34.40
2017-05-27T16:26:04.370Z,34.50
2017-05-27T16:28:31.322Z,34.40
2017-05-27T16:30:58.297Z,34.10
2017-05-27T16:33:25.243Z,34.70
2017-05-27T16:35:52.210Z,34.40
2017-05-27T16:38:19.153Z,33.60
2017-05-27T16:40:46.125Z,34.10
2017-05-27T16:43:13.071Z,34.10
2017-05-27T16:45:40.021Z,34.80
2017-05-27T16:48:06.997Z,34.90
2017-05-27T16:50:34.000Z,35.20
2017-05-27T16:53:00.949Z,34.40
2017-05-27T16:55:27.910Z,34.30
2017-05-27T16:57:54.881Z,34.70
2017-05-27T17:00:21.826Z,34.70
2017-05-27T17:02:48.805Z,35.60
2017-05-27T17:05:15.757Z,35.70
2017-05-27T17:07:42.750Z,36.00
2017-05-27T17:10:09.690Z,36.10
2017-05-27T17:12:36.690Z,35.60
2017-05-27T17:15:03.633Z,35.70
2017-05-27T17:17:30.628Z,35.40
2017-05-27T17:19:57.580Z,35.90
2017-05-27T17:22:24.521Z,34.60
2017-05-27T17:24:51.510Z,34.90
2017-05-27T17:27:18.458Z,35.20
2017-05-27T17:29:45.410Z,35.20
2017-05-27T17:32:12.410Z,35.80
2017-05-27T17:34:39.361Z,35.60
2017-05-27T17:37:06.313Z,36.40
2017-05-27T17:39:33.320Z,36.20
2017-05-27T17:42:00.261Z,35.80
2017-05-27T17:44:27.207Z,36.10
2017-05-27T17:46:54.189Z,36.20
2017-05-27T17:49:21.182Z,36.20
2017-05-27T17:51:48.138Z,36.30
2017-05-27T17:54:15.087Z,36.10
2017-05-27T17:56:42.061Z,36.50
2017-05-27T17:59:09.014Z,36.60
2017-05-27T18:01:35.955Z,36.40
2017-05-27T18:04:02.948Z,37.00
2017-05-27T18:06:29.903Z,36.60
2017-05-27T18:08:56.955Z,36.60
2017-05-27T18:11:23.902Z,36.70
2017-05-27T18:13:50.864Z,36.70
2017-05-27T18:16:17.885Z,36.70
2017-05-27T18:18:44.876Z,36.60
2017-05-27T18:21:11.821Z,36.70
2017-05-27T18:23:38.823Z,36.90
2017-05-27T18:26:05.809Z,37.10
2017-05-27T18:28:32.755Z,37.50
2017-05-27T18:30:59.748Z,36.80
2017-05-27T18:33:26.690Z,36.80
2017-05-27T18:35:53.628Z,37.10
2017-05-27T18:38:20.617Z,37.00
2017-05-27T18:40:47.922Z,37.10
2017-05-27T18:43:14.878Z,37.20
2017-05-27T18:45:41.838Z,38.20
2017-05-27T18:48:08.844Z,38.30
2017-05-27T18:50:35.796Z,39.70
2017-05-27T18:53:02.762Z,40.30
2017-05-27T18:55:29.777Z,40.90
2017-05-27T18:57:56.728Z,41.50
2017-05-27T19:00:23.682Z,42.30
2017-05-27T19:02:50.697Z,43.10
2017-05-27T19:05:17.633Z,43.30
2017-05-27T19:07:44.623Z,43.50
2017-05-27T19:10:11.645Z,43.80
2017-05-27T19:12:38.595Z,44.30
2017-05-27T19:15:05.581Z,44.40
2017-05-27T19:17:32.583Z,44.40
2017-05-27T19:19:59.552Z,43.80
2017-05-27T19:22:26.532Z,44.00
2017-05-27T19:24:53.538Z,44.40
2017-05-27T19:27:20.493Z,43.60
2017-05-27T19:29:47.649Z,43.30
2017-05-27T19:32:14.656Z,43.40
2017-05-27T19:34:41.607Z,43.40
2017-05-27T19:37:08.610Z,43.50
2017-05-27T19:39:35.559Z,43.50
2017-05-27T19:42:02.505Z,43.10
2017-05-27T19:47:03.461Z,42.80
2017-05-27T19:49:30.450Z,43.10
2017-05-27T19:51:57.393Z,42.90
2017-05-27T19:54:24.342Z,42.80
2017-05-27T19:56:51.470Z,43.20
2017-05-27T19:59:18.422Z,43.10
2017-05-27T20:01:45.370Z,43.70
2017-05-27T20:04:12.344Z,43.90
2017-05-27T20:06:39.322Z,43.30
2017-05-27T20:09:06.474Z,43.80
2017-05-27T20:11:33.462Z,44.40
2017-05-27T20:14:00.429Z,44.20
2017-05-27T20:16:27.366Z,44.00
2017-05-27T20:18:54.359Z,44.80
2017-05-27T20:21:21.311Z,44.30
2017-05-27T20:23:48.367Z,44.90
2017-05-27T20:26:15.358Z,45.30
2017-05-27T20:28:42.306Z,45.20
2017-05-27T20:31:09.253Z,45.10
2017-05-27T20:33:36.302Z,45.20
2017-05-27T20:36:03.321Z,46.00
2017-05-27T20:38:30.279Z,45.80
2017-05-27T20:40:57.339Z,45.80
2017-05-27T20:43:24.284Z,46.10
2017-05-27T20:45:51.225Z,46.80
2017-05-27T20:48:18.264Z,46.80
2017-05-27T20:50:45.218Z,47.00
2017-05-27T20:53:12.166Z,47.40
2017-05-27T20:55:39.186Z,47.40
2017-05-27T20:58:06.126Z,46.80
2017-05-27T21:00:33.118Z,46.90
2017-05-27T21:03:00.121Z,47.00
2017-05-27T21:05:27.077Z,47.20
2017-05-27T21:07:54.125Z,47.50
2017-05-27T21:10:21.117Z,47.60
2017-05-27T21:12:48.074Z,47.70
2017-05-27T21:15:15.040Z,48.40
2017-05-27T21:17:42.047Z,47.90
2017-05-27T21:20:09.006Z,47.80
2017-05-27T21:22:35.958Z,47.90
2017-05-27T21:25:02.926Z,47.50
2017-05-27T21:27:29.873Z,47.80
2017-05-27T21:29:56.869Z,47.80
2017-05-27T21:32:23.819Z,48.00
2017-05-27T21:34:50.789Z,48.20
2017-05-27T21:37:17.750Z,48.10
2017-05-27T21:39:51.734Z,48.80
2017-05-27T21:42:18.689Z,49.10
2017-05-27T21:44:45.638Z,48.80
2017-05-27T21:47:12.622Z,49.20
2017-05-27T21:49:39.586Z,49.10
2017-05-27T21:52:06.561Z,49.10
2017-05-27T21:54:33.520Z,49.10
2017-05-27T21:57:00.498Z,49.20
2017-05-27T21:59:27.444Z,49.60
2017-05-27T22:01:54.444Z,50.00
2017-05-27T22:04:21.399Z,50.10
2017-05-27T22:06:48.405Z,49.90
2017-05-27T22:09:15.417Z,50.00
2017-05-27T22:11:42.371Z,50.00
2017-05-27T22:14:09.341Z,49.80
2017-05-27T22:16:36.297Z,50.00
2017-05-27T22:19:03.270Z,50.30
2017-05-27T22:21:30.224Z,50.30
2017-05-27T22:23:57.198Z,50.40
2017-05-27T22:26:24.145Z,50.70
2017-05-27T22:28:51.118Z,50.70
2017-05-27T22:31:18.076Z,50.70
2017-05-27T22:33:45.028Z,50.70
2017-05-27T22:36:12.002Z,50.50
2017-05-27T22:38:38.958Z,50.20
2017-05-27T22:41:05.243Z,50.20
2017-05-27T22:43:32.194Z,50.10
2017-05-27T22:45:59.175Z,50.50
2017-05-27T22:48:26.130Z,50.70
2017-05-27T22:50:53.112Z,50.60
2017-05-27T22:53:20.053Z,50.60
2017-05-27T22:55:47.020Z,50.20
2017-05-27T22:58:13.974Z,50.50
2017-05-27T23:00:40.969Z,50.50
2017-05-27T23:03:07.922Z,50.70
2017-05-27T23:05:34.886Z,51.10
2017-05-27T23:08:01.877Z,51.10
2017-05-27T23:10:28.833Z,51.50
2017-05-27T23:12:55.804Z,51.20
2017-05-27T23:15:22.763Z,51.20
2017-05-27T23:17:49.744Z,51.00
2017-05-27T23:20:16.706Z,51.20
2017-05-27T23:22:43.669Z,51.10
2017-05-27T23:25:10.644Z,51.30
2017-05-27T23:27:37.640Z,51.40
2017-05-27T23:30:04.600Z,51.50
2017-05-27T23:32:31.563Z,51.80
2017-05-27T23:34:58.533Z,52.10
2017-05-27T23:37:25.482Z,52.30
2017-05-27T23:39:52.456Z,52.20
2017-05-27T23:42:19.404Z,52.50
2017-05-27T23:44:46.375Z,52.50
2017-05-27T23:47:13.335Z,52.60
2017-05-27T23:49:40.309Z,52.70
2017-05-27T23:52:07.290Z,52.70
2017-05-27T23:54:34.266Z,52.40
2017-05-27T23:57:01.212Z,52.70
2017-05-27T23:59:28.193Z,52.80
